createdAt,value
2018-04-06T00:00:11.169Z,8.97
2018-04-06T00:04:44.377Z,9.07
2018-04-06T00:09:17.545Z,13.17
2018-04-06T00:13:51.507Z,11.90
2018-04-06T00:18:24.700Z,11.33
2018-04-06T00:22:57.918Z,11.30
2018-04-06T00:27:31.082Z,11.00
2018-04-06T00:32:04.270Z,10.97
2018-04-06T00:36:37.464Z,10.97
2018-04-06T00:41:10.660Z,10.40
2018-04-06T00:45:43.880Z,16.83
2018-04-06T00:50:17.059Z,20.77
2018-04-06T00:54:50.249Z,20.17
2018-04-06T00:59:23.524Z,20.20
2018-04-06T01:03:57.480Z,21.83
2018-04-06T01:08:31.034Z,18.40
2018-04-06T01:13:04.301Z,20.03
2018-04-06T01:17:37.497Z,23.47
2018-04-06T01:22:11.620Z,16.63
2018-04-06T01:26:45.640Z,30.10
2018-04-06T01:31:18.861Z,24.00
2018-04-06T01:35:53.625Z,23.70
2018-04-06T01:40:26.820Z,32.17
2018-04-06T01:45:00.032Z,44.03
2018-04-06T01:49:33.797Z,30.13
2018-04-06T01:54:07.004Z,18.03
2018-04-06T01:58:40.200Z,23.70
2018-04-06T02:03:13.393Z,28.50
2018-04-06T02:07:46.961Z,36.50
2018-04-06T02:12:20.167Z,31.90
2018-04-06T02:16:54.127Z,25.90
2018-04-06T02:21:27.321Z,40.13
2018-04-06T02:26:00.511Z,26.03
2018-04-06T02:30:34.478Z,42.93
2018-04-06T02:35:07.707Z,36.43
2018-04-06T02:39:40.873Z,30.43
2018-04-06T02:44:14.077Z,33.30
2018-04-06T02:48:47.252Z,20.97
2018-04-06T02:53:21.239Z,26.30
2018-04-06T02:57:54.482Z,23.30
2018-04-06T03:02:27.671Z,35.97
2018-04-06T03:07:00.901Z,42.57
2018-04-06T03:11:34.843Z,48.53
2018-04-06T03:16:08.045Z,68.60
2018-04-06T03:20:41.999Z,79.07
2018-04-06T03:25:15.204Z,74.30
2018-04-06T03:29:48.380Z,26.47
2018-04-06T03:34:21.600Z,39.30
2018-04-06T03:38:54.804Z,48.63
2018-04-06T03:43:27.967Z,89.57
2018-04-06T03:48:01.208Z,107.40
2018-04-06T03:52:35.140Z,53.33
2018-04-06T03:57:08.328Z,43.40
2018-04-06T04:01:42.264Z,42.60
2018-04-06T04:06:16.221Z,56.00
2018-04-06T04:10:49.417Z,73.53
2018-04-06T04:15:22.620Z,54.27
2018-04-06T04:19:55.815Z,116.60
2018-04-06T04:24:29.007Z,65.13
2018-04-06T04:29:02.943Z,161.93
2018-04-06T04:33:36.167Z,91.50
2018-04-06T04:38:09.331Z,87.83
2018-04-06T04:42:42.569Z,53.27
2018-04-06T04:47:15.773Z,84.43
2018-04-06T04:51:49.003Z,32.83
2018-04-06T04:56:22.214Z,42.30
2018-04-06T05:00:56.621Z,94.93
2018-04-06T05:05:34.777Z,99.63
2018-04-06T05:10:08.369Z,109.63
2018-04-06T05:14:41.664Z,71.00
2018-04-06T05:19:14.872Z,69.27
2018-04-06T05:23:48.070Z,89.57
2018-04-06T05:28:21.284Z,27.07
2018-04-06T05:32:54.532Z,133.30
2018-04-06T05:37:27.856Z,145.77
2018-04-06T05:42:01.040Z,101.47
2018-04-06T05:46:34.519Z,36.20
2018-04-06T05:51:07.864Z,34.13
2018-04-06T05:55:41.142Z,29.60
2018-04-06T06:00:14.399Z,27.73
2018-04-06T06:04:47.635Z,20.93
2018-04-06T06:09:21.644Z,21.60
2018-04-06T06:13:54.888Z,13.40
2018-04-06T06:18:28.117Z,12.53
2018-04-06T06:23:01.368Z,24.40
2018-04-06T06:27:34.604Z,13.97
2018-04-06T06:32:08.565Z,16.17
2018-04-06T06:36:41.756Z,13.10
2018-04-06T06:41:15.023Z,13.57
2018-04-06T06:45:48.971Z,14.83
2018-04-06T06:50:22.921Z,15.47
2018-04-06T06:54:56.311Z,14.53
2018-04-06T06:59:29.713Z,15.77
2018-04-06T07:04:03.536Z,12.47
2018-04-06T07:08:36.827Z,13.17
2018-04-06T07:13:10.797Z,12.47
2018-04-06T07:17:44.036Z,11.40
2018-04-06T07:22:17.235Z,14.00
2018-04-06T07:26:50.936Z,11.10
2018-04-06T07:31:24.396Z,13.87
2018-04-06T07:35:57.708Z,13.33
2018-04-06T07:40:30.900Z,11.13
2018-04-06T07:45:04.228Z,14.00
2018-04-06T07:49:38.237Z,8.53
2018-04-06T07:54:11.437Z,9.13
2018-04-06T07:58:44.691Z,10.87
2018-04-06T08:03:17.979Z,13.40
2018-04-06T08:07:52.020Z,15.73
2018-04-06T08:12:25.279Z,10.57
2018-04-06T08:16:58.540Z,9.53
2018-04-06T08:21:31.769Z,9.23
2018-04-06T08:26:05.193Z,9.40
2018-04-06T08:30:38.446Z,9.43
2018-04-06T08:35:13.396Z,8.63
2018-04-06T08:39:47.387Z,9.73
2018-04-06T08:44:20.606Z,8.03
2018-04-06T08:48:53.934Z,8.43
2018-04-06T08:53:27.981Z,10.30
2018-04-06T08:58:01.197Z,7.95
2018-04-06T09:02:34.645Z,6.10
2018-04-06T09:07:07.881Z,5.80
2018-04-06T09:11:43.337Z,7.68
2018-04-06T09:16:16.667Z,7.30
2018-04-06T09:20:50.965Z,6.20
2018-04-06T09:25:24.960Z,9.40
2018-04-06T09:29:58.476Z,7.70
2018-04-06T09:34:31.716Z,5.95
2018-04-06T09:39:06.612Z,5.78
2018-04-06T09:43:39.833Z,6.72
2018-04-06T09:48:13.857Z,7.65
2018-04-06T09:52:47.117Z,6.57
2018-04-06T09:57:21.424Z,6.20
2018-04-06T10:01:55.771Z,6.82
2018-04-06T10:06:29.917Z,7.28
2018-04-06T10:11:03.871Z,4.95
2018-04-06T10:15:37.158Z,6.50
2018-04-06T10:20:10.398Z,4.75
2018-04-06T10:24:43.665Z,6.60
2018-04-06T10:29:17.657Z,5.15
2018-04-06T10:33:50.880Z,4.28
2018-04-06T10:38:24.114Z,5.60
2018-04-06T10:42:57.429Z,5.18
2018-04-06T10:47:30.681Z,4.37
2018-04-06T10:52:03.949Z,5.37
2018-04-06T10:56:38.623Z,4.53
2018-04-06T11:01:11.869Z,6.47
2018-04-06T11:05:45.889Z,4.07
2018-04-06T11:10:19.885Z,4.57
2018-04-06T11:14:53.164Z,5.00
2018-04-06T11:19:26.407Z,5.18
2018-04-06T11:23:59.599Z,4.10
2018-04-06T11:28:32.849Z,4.40
2018-04-06T11:33:06.837Z,3.80
2018-04-06T11:37:40.091Z,4.20
2018-04-06T11:42:14.170Z,3.97
2018-04-06T11:46:47.402Z,3.05
2018-04-06T11:51:20.770Z,4.97
2018-04-06T11:55:54.123Z,2.90
2018-04-06T12:00:27.798Z,5.47
2018-04-06T12:05:02.069Z,3.47
2018-04-06T12:09:36.036Z,3.08
2018-04-06T12:14:10.141Z,4.35
2018-04-06T12:18:44.078Z,6.62
2018-04-06T12:23:31.139Z,2.53
2018-04-06T12:28:06.981Z,4.25
2018-04-06T12:32:40.306Z,3.05
2018-04-06T12:37:13.714Z,2.83
2018-04-06T12:41:46.927Z,3.25
2018-04-06T12:46:26.337Z,3.28
2018-04-06T12:51:02.156Z,3.10
2018-04-06T12:55:35.466Z,3.10
2018-04-06T13:00:08.673Z,2.65
2018-04-06T13:04:41.895Z,3.70
2018-04-06T13:09:15.056Z,3.25
2018-04-06T13:13:49.041Z,6.20
2018-04-06T13:18:22.282Z,7.97
2018-04-06T13:22:56.258Z,3.62
2018-04-06T13:27:29.534Z,3.28
2018-04-06T13:32:02.755Z,4.93
2018-04-06T13:36:35.956Z,6.53
2018-04-06T13:41:09.231Z,4.57
2018-04-06T13:45:43.242Z,4.20
2018-04-06T13:50:17.232Z,5.40
2018-04-06T13:54:50.491Z,5.37
2018-04-06T13:59:24.573Z,6.32
2018-04-06T14:03:57.757Z,5.07
2018-04-06T14:08:30.977Z,3.22
2018-04-06T14:13:04.173Z,5.00
2018-04-06T14:17:37.355Z,4.87
2018-04-06T14:22:11.356Z,3.40
2018-04-06T14:26:44.921Z,4.62
2018-04-06T14:31:18.199Z,4.93
2018-04-06T14:35:52.284Z,4.28
2018-04-06T14:40:25.511Z,3.83
2018-04-06T14:44:59.524Z,5.70
2018-04-06T14:49:32.740Z,4.10
2018-04-06T14:54:06.025Z,4.35
2018-04-06T14:58:39.206Z,6.15
2018-04-06T15:03:12.452Z,6.10
2018-04-06T15:07:45.720Z,3.30
2018-04-06T15:12:18.921Z,5.30
2018-04-06T15:16:52.145Z,3.45
2018-04-06T15:21:25.369Z,3.55
2018-04-06T15:25:59.528Z,3.35
2018-04-06T15:30:32.702Z,4.03
2018-04-06T15:35:05.892Z,3.03
2018-04-06T15:39:39.103Z,6.75
2018-04-06T15:44:12.792Z,7.18
2018-04-06T15:48:46.004Z,3.62
2018-04-06T15:53:19.194Z,5.37
2018-04-06T15:57:53.315Z,4.82
2018-04-06T16:02:27.292Z,6.45
2018-04-06T16:07:00.728Z,4.35
2018-04-06T16:11:34.741Z,4.85
2018-04-06T16:16:08.295Z,6.57
2018-04-06T16:20:42.292Z,6.85
2018-04-06T16:25:15.524Z,5.78
2018-04-06T16:29:49.533Z,7.72
2018-04-06T16:34:22.741Z,6.87
2018-04-06T16:38:55.969Z,4.12
2018-04-06T16:43:29.935Z,4.10
2018-04-06T16:48:03.178Z,6.18
2018-04-06T16:52:36.428Z,5.53
2018-04-06T16:57:09.629Z,6.07
2018-04-06T17:01:42.800Z,7.10
2018-04-06T17:06:16.018Z,6.93
2018-04-06T17:10:50.052Z,6.32
2018-04-06T17:15:24.016Z,5.28
2018-04-06T17:19:57.294Z,6.55
2018-04-06T17:24:30.512Z,9.57
2018-04-06T17:29:03.700Z,7.47
2018-04-06T17:33:37.671Z,8.68
2018-04-06T17:38:10.904Z,7.82
2018-04-06T17:42:44.239Z,7.97
2018-04-06T17:47:18.257Z,6.75
2018-04-06T17:51:51.629Z,7.93
2018-04-06T17:56:24.832Z,7.65
2018-04-06T18:00:59.187Z,5.68
2018-04-06T18:05:32.427Z,5.40
2018-04-06T18:10:06.428Z,7.13
2018-04-06T18:14:39.604Z,7.53
2018-04-06T18:19:12.833Z,7.93
2018-04-06T18:23:46.028Z,8.03
2018-04-06T18:28:19.260Z,6.77
2018-04-06T18:32:53.251Z,10.00
2018-04-06T18:37:26.509Z,12.37
2018-04-06T18:42:00.592Z,15.27
2018-04-06T18:46:33.784Z,14.53
2018-04-06T18:51:07.013Z,12.20
2018-04-06T18:55:41.929Z,8.80
2018-04-06T19:00:15.133Z,10.97
2018-04-06T19:04:48.410Z,13.47
2018-04-06T19:09:22.395Z,20.93
2018-04-06T19:13:55.741Z,21.43
2018-04-06T19:18:29.702Z,15.13
2018-04-06T19:23:02.927Z,16.53
2018-04-06T19:27:36.151Z,19.10
2018-04-06T19:32:09.359Z,12.63
2018-04-06T19:36:42.583Z,20.13
2018-04-06T19:41:15.823Z,24.40
2018-04-06T19:45:49.338Z,14.00
2018-04-06T19:50:22.590Z,12.87
2018-04-06T19:54:55.796Z,13.23
2018-04-06T19:59:28.991Z,11.67
2018-04-06T20:04:02.228Z,14.27
2018-04-06T20:08:35.452Z,11.20
2018-04-06T20:13:09.439Z,11.40
2018-04-06T20:17:42.632Z,17.03
2018-04-06T20:22:16.639Z,138.00
2018-04-06T20:26:50.496Z,58.10
2018-04-06T20:31:23.761Z,95.53
2018-04-06T20:35:56.947Z,77.60
2018-04-06T20:40:30.920Z,52.97
2018-04-06T20:45:04.140Z,40.40
2018-04-06T20:49:38.105Z,30.13
2018-04-06T20:54:11.378Z,40.83
2018-04-06T20:58:44.548Z,18.90
2018-04-06T21:03:17.793Z,17.40
2018-04-06T21:07:51.016Z,12.07
2018-04-06T21:12:24.963Z,11.43
2018-04-06T21:16:58.925Z,15.67
2018-04-06T21:21:32.194Z,25.87
2018-04-06T21:26:06.160Z,21.73
2018-04-06T21:30:39.415Z,22.37
2018-04-06T21:35:13.396Z,22.80
2018-04-06T21:39:46.629Z,14.97
2018-04-06T21:44:20.609Z,15.07
2018-04-06T21:48:53.848Z,25.67
2018-04-06T21:53:27.195Z,15.47
2018-04-06T21:58:01.165Z,27.53
2018-04-06T22:02:34.397Z,19.63
2018-04-06T22:07:07.653Z,32.53
2018-04-06T22:11:40.880Z,27.43
2018-04-06T22:16:14.113Z,18.97
2018-04-06T22:20:47.312Z,25.43
2018-04-06T22:25:20.529Z,76.43
2018-04-06T22:29:53.752Z,87.20
2018-04-06T22:34:27.732Z,32.43
2018-04-06T22:39:00.985Z,14.73
2018-04-06T22:43:34.178Z,16.17
2018-04-06T22:48:07.429Z,11.13
2018-04-06T22:52:41.402Z,12.30
2018-04-06T22:57:14.613Z,9.80
2018-04-06T23:01:47.848Z,13.13
2018-04-06T23:06:21.852Z,12.97
2018-04-06T23:10:55.097Z,16.80
2018-04-06T23:15:29.085Z,13.00
2018-04-06T23:20:02.289Z,11.97
2018-04-06T23:24:35.529Z,23.10
2018-04-06T23:29:09.483Z,13.23
2018-04-06T23:33:42.729Z,15.50
2018-04-06T23:38:15.939Z,22.63
2018-04-06T23:42:49.131Z,15.53
2018-04-06T23:47:22.362Z,23.53
2018-04-06T23:51:55.580Z,16.70
2018-04-06T23:56:28.759Z,17.27
